createdAt,value
2022-08-16T00:02:38.408Z,17.10
2022-08-16T00:05:10.914Z,17.00
2022-08-16T00:07:41.254Z,17.10
2022-08-16T00:10:20.692Z,17.00
2022-08-16T00:12:49.974Z,16.90
2022-08-16T00:15:51.600Z,16.90
2022-08-16T00:18:15.947Z,16.90
2022-08-16T00:20:46.483Z,16.80
2022-08-16T00:23:14.812Z,16.80
2022-08-16T00:26:35.378Z,16.80
2022-08-16T00:28:29.921Z,16.80
2022-08-16T00:30:59.264Z,16.70
2022-08-16T00:33:28.907Z,16.70
2022-08-16T00:35:57.901Z,16.80
2022-08-16T00:38:41.459Z,16.80
2022-08-16T00:41:11.481Z,16.80
2022-08-16T00:43:42.549Z,16.70
2022-08-16T00:46:33.166Z,16.70
2022-08-16T00:49:02.424Z,16.60
2022-08-16T00:51:29.871Z,16.60
2022-08-16T00:53:57.705Z,16.60
2022-08-16T00:56:57.213Z,16.50
2022-08-16T00:59:18.207Z,16.50
2022-08-16T01:01:46.462Z,16.70
2022-08-16T01:04:30.192Z,16.60
2022-08-16T01:07:04.904Z,16.60
2022-08-16T01:09:37.416Z,16.70
2022-08-16T01:12:10.606Z,16.80
2022-08-16T01:14:47.273Z,16.70
2022-08-16T01:17:17.025Z,16.70
2022-08-16T01:19:48.512Z,16.70
2022-08-16T01:23:02.175Z,16.80
2022-08-16T01:25:34.547Z,16.70
2022-08-16T01:28:09.307Z,16.80
2022-08-16T01:30:49.870Z,16.70
2022-08-16T01:33:19.592Z,16.60
2022-08-16T01:36:11.698Z,16.50
2022-08-16T01:38:51.267Z,16.40
2022-08-16T01:41:30.586Z,16.40
2022-08-16T01:44:01.634Z,16.40
2022-08-16T01:46:39.508Z,16.30
2022-08-16T01:49:21.621Z,16.40
2022-08-16T01:51:59.517Z,16.30
2022-08-16T01:54:40.611Z,16.40
2022-08-16T01:57:09.091Z,16.50
2022-08-16T01:59:41.338Z,16.40
2022-08-16T02:02:22.192Z,16.40
2022-08-16T02:04:54.888Z,16.40
2022-08-16T02:07:24.785Z,16.30
2022-08-16T02:09:58.946Z,16.30
2022-08-16T02:12:49.406Z,16.20
2022-08-16T02:15:24.855Z,16.20
2022-08-16T02:17:56.149Z,16.00
2022-08-16T02:20:26.277Z,16.10
2022-08-16T02:22:55.295Z,16.00
2022-08-16T02:25:23.227Z,16.10
2022-08-16T02:27:50.720Z,15.90
2022-08-16T02:30:36.879Z,15.90
2022-08-16T02:33:12.344Z,15.90
2022-08-16T02:35:53.821Z,16.10
2022-08-16T02:38:28.761Z,15.90
2022-08-16T02:41:01.843Z,15.90
2022-08-16T02:43:33.141Z,15.80
2022-08-16T02:46:07.646Z,15.70
2022-08-16T02:48:38.666Z,15.80
2022-08-16T02:51:10.642Z,15.80
2022-08-16T02:53:47.005Z,15.70
2022-08-16T02:56:16.634Z,15.70
2022-08-16T02:58:50.098Z,15.90
2022-08-16T03:01:24.625Z,15.80
2022-08-16T03:04:29.651Z,15.80
2022-08-16T03:06:56.664Z,15.70
2022-08-16T03:09:44.768Z,15.70
2022-08-16T03:12:16.375Z,15.90
2022-08-16T03:14:45.523Z,15.80
2022-08-16T03:17:13.188Z,15.80
2022-08-16T03:19:48.330Z,15.60
2022-08-16T03:22:28.022Z,15.60
2022-08-16T03:25:01.801Z,15.60
2022-08-16T03:27:33.714Z,15.60
2022-08-16T03:30:17.744Z,15.50
2022-08-16T03:32:51.734Z,15.50
2022-08-16T03:35:23.292Z,15.50
2022-08-16T03:38:03.306Z,15.40
2022-08-16T03:40:38.827Z,15.40
2022-08-16T03:43:20.765Z,15.40
2022-08-16T03:45:53.698Z,15.40
2022-08-16T03:48:36.220Z,15.30
2022-08-16T03:51:12.110Z,15.40
2022-08-16T03:53:45.819Z,15.40
2022-08-16T03:56:30.254Z,15.50
2022-08-16T03:58:59.092Z,15.60
2022-08-16T04:01:30.457Z,15.70
2022-08-16T04:03:58.256Z,15.70
2022-08-16T04:06:26.629Z,15.50
2022-08-16T04:08:54.607Z,15.40
2022-08-16T04:11:23.742Z,15.40
2022-08-16T04:14:00.437Z,15.40
2022-08-16T04:16:42.099Z,15.40
2022-08-16T04:19:31.593Z,15.40
2022-08-16T04:22:00.896Z,15.40
2022-08-16T04:24:31.053Z,15.40
2022-08-16T04:26:58.938Z,15.50
2022-08-16T04:29:27.863Z,15.50
2022-08-16T04:32:14.424Z,15.40
2022-08-16T04:34:44.092Z,15.60
2022-08-16T04:37:12.635Z,15.60
2022-08-16T04:39:47.079Z,15.70
2022-08-16T04:42:26.462Z,15.80
2022-08-16T04:44:58.380Z,15.70
2022-08-16T04:47:33.202Z,15.80
2022-08-16T04:50:10.560Z,16.00
2022-08-16T04:52:39.140Z,15.90
2022-08-16T04:55:12.061Z,15.80
2022-08-16T04:57:41.274Z,16.00
2022-08-16T05:00:33.771Z,15.90
2022-08-16T05:03:20.524Z,16.00
2022-08-16T05:05:59.506Z,16.00
2022-08-16T05:08:34.128Z,16.00
2022-08-16T05:11:09.184Z,16.00
2022-08-16T05:13:41.050Z,16.20
2022-08-16T05:16:16.623Z,16.40
2022-08-16T05:18:52.364Z,16.60
2022-08-16T05:21:21.633Z,16.70
2022-08-16T05:23:58.670Z,16.80
2022-08-16T05:26:31.130Z,16.90
2022-08-16T05:29:03.529Z,17.00
2022-08-16T05:31:31.331Z,16.90
2022-08-16T05:34:03.179Z,17.20
2022-08-16T05:36:36.957Z,17.60
2022-08-16T05:39:09.391Z,17.70
2022-08-16T05:41:45.108Z,17.70
2022-08-16T05:44:23.598Z,17.80
2022-08-16T05:47:00.207Z,17.90
2022-08-16T05:49:39.235Z,17.70
2022-08-16T05:52:17.176Z,17.70
2022-08-16T05:54:58.465Z,18.00
2022-08-16T05:57:33.803Z,18.10
2022-08-16T06:00:09.409Z,18.10
2022-08-16T06:02:43.015Z,18.00
2022-08-16T06:05:36.145Z,18.30
2022-08-16T06:08:08.198Z,18.50
2022-08-16T06:11:05.658Z,18.60
2022-08-16T06:13:32.674Z,18.30
2022-08-16T06:15:59.753Z,18.30
2022-08-16T06:18:27.225Z,18.50
2022-08-16T06:20:55.774Z,18.80
2022-08-16T06:23:26.262Z,19.20
2022-08-16T06:26:02.957Z,19.60
2022-08-16T06:28:37.236Z,19.70
2022-08-16T06:31:13.684Z,19.90
2022-08-16T06:33:45.173Z,19.90
2022-08-16T06:36:15.197Z,20.10
2022-08-16T06:38:52.291Z,19.90
2022-08-16T06:41:43.840Z,20.10
2022-08-16T06:44:24.428Z,19.80
2022-08-16T06:46:57.470Z,20.20
2022-08-16T06:49:29.752Z,20.70
2022-08-16T06:52:02.652Z,21.30
2022-08-16T06:54:36.080Z,21.70
2022-08-16T06:57:03.139Z,22.10
2022-08-16T06:59:32.263Z,22.20
2022-08-16T07:02:33.501Z,21.80
2022-08-16T07:05:02.137Z,21.70
2022-08-16T07:07:34.263Z,21.80
2022-08-16T07:10:08.628Z,22.00
2022-08-16T07:13:03.317Z,22.00
2022-08-16T07:15:25.210Z,22.70
2022-08-16T07:17:53.048Z,22.90
2022-08-16T07:20:35.081Z,23.00
2022-08-16T07:23:13.245Z,22.60
2022-08-16T07:25:49.483Z,22.60
2022-08-16T07:28:21.010Z,22.40
2022-08-16T07:30:53.883Z,22.50
2022-08-16T07:33:53.501Z,23.10
2022-08-16T07:36:32.055Z,24.10
2022-08-16T07:38:59.477Z,24.20
2022-08-16T07:41:30.304Z,24.60
2022-08-16T07:44:01.009Z,24.50
2022-08-16T07:46:38.652Z,23.80
2022-08-16T07:49:27.359Z,24.40
2022-08-16T07:52:00.852Z,24.40
2022-08-16T07:54:31.947Z,23.90
2022-08-16T07:57:01.592Z,23.80
2022-08-16T07:59:42.860Z,24.00
2022-08-16T08:02:14.196Z,24.30
2022-08-16T08:04:48.704Z,24.70
2022-08-16T08:07:16.584Z,25.00
2022-08-16T08:09:44.239Z,24.30
2022-08-16T08:12:31.521Z,24.30
2022-08-16T08:15:01.031Z,24.70
2022-08-16T08:17:43.153Z,25.10
2022-08-16T08:20:27.899Z,24.90
2022-08-16T08:23:00.811Z,24.90
2022-08-16T08:25:53.978Z,24.80
2022-08-16T08:28:20.205Z,25.20
2022-08-16T08:30:51.319Z,25.30
2022-08-16T08:33:27.932Z,25.10
2022-08-16T08:36:01.095Z,25.50
2022-08-16T08:38:45.349Z,25.60
2022-08-16T08:41:18.608Z,25.70
2022-08-16T08:43:50.733Z,26.70
2022-08-16T08:46:21.711Z,27.20
2022-08-16T08:48:59.032Z,27.30
2022-08-16T08:51:32.080Z,28.50
2022-08-16T08:54:06.751Z,28.60
2022-08-16T08:56:37.298Z,28.40
2022-08-16T08:59:13.256Z,28.70
2022-08-16T09:01:57.773Z,29.30
2022-08-16T09:04:33.028Z,29.20
2022-08-16T09:07:03.871Z,29.20
2022-08-16T09:09:34.164Z,28.90
2022-08-16T09:12:08.272Z,29.00
2022-08-16T09:15:03.266Z,27.80
2022-08-16T09:17:49.170Z,27.40
2022-08-16T09:20:19.114Z,27.00
2022-08-16T09:22:51.308Z,27.10
2022-08-16T09:25:26.371Z,28.30
2022-08-16T09:28:09.527Z,28.20
2022-08-16T09:31:05.202Z,27.80
2022-08-16T09:33:37.074Z,28.50
2022-08-16T09:36:04.841Z,29.80
2022-08-16T09:38:40.831Z,29.60
2022-08-16T09:41:14.581Z,31.00
2022-08-16T09:43:58.009Z,31.90
2022-08-16T09:46:45.903Z,31.50
2022-08-16T09:49:19.929Z,31.40
2022-08-16T09:51:48.401Z,32.10
2022-08-16T09:54:20.908Z,33.00
2022-08-16T09:56:52.565Z,34.30
2022-08-16T09:59:23.745Z,34.30
2022-08-16T10:01:53.311Z,32.90
2022-08-16T10:04:31.294Z,33.30
2022-08-16T10:07:15.290Z,33.20
2022-08-16T10:09:53.766Z,33.00
2022-08-16T10:12:46.814Z,31.70
2022-08-16T10:15:23.185Z,30.70
2022-08-16T10:17:59.831Z,30.40
2022-08-16T10:20:36.809Z,31.00
2022-08-16T10:23:08.356Z,31.70
2022-08-16T10:27:18.442Z,31.10
2022-08-16T10:28:32.543Z,30.30
2022-08-16T10:31:08.385Z,30.70
2022-08-16T10:33:40.476Z,30.70
2022-08-16T10:36:08.803Z,31.70
2022-08-16T10:38:38.291Z,33.90
2022-08-16T10:41:07.339Z,34.90
2022-08-16T10:43:36.546Z,35.80
2022-08-16T10:46:40.082Z,36.40
2022-08-16T10:48:53.114Z,37.70
2022-08-16T10:51:19.949Z,37.00
2022-08-16T10:54:00.979Z,38.30
2022-08-16T10:56:52.834Z,39.10
2022-08-16T10:59:32.785Z,37.30
2022-08-16T11:05:06.267Z,34.00
2022-08-16T11:07:52.237Z,32.30
2022-08-16T11:16:25.429Z,34.80
2022-08-16T11:19:03.918Z,34.40
2022-08-16T11:21:32.418Z,34.60
2022-08-16T11:23:59.867Z,33.80
2022-08-16T11:26:27.230Z,32.40
2022-08-16T11:31:45.890Z,32.60
2022-08-16T11:34:21.537Z,34.40
2022-08-16T11:36:53.623Z,35.60
2022-08-16T11:39:27.405Z,35.70
2022-08-16T11:41:56.653Z,35.90
2022-08-16T11:44:53.102Z,37.10
2022-08-16T11:47:12.182Z,38.40
2022-08-16T11:49:39.003Z,38.50
2022-08-16T11:52:05.882Z,37.60
2022-08-16T11:54:36.202Z,38.00
2022-08-16T11:57:09.255Z,37.10
2022-08-16T11:59:39.921Z,34.60
2022-08-16T12:02:31.498Z,36.80
2022-08-16T12:04:55.849Z,38.10
2022-08-16T12:07:23.666Z,37.90
2022-08-16T12:09:53.269Z,38.70
2022-08-16T12:12:23.636Z,38.30
2022-08-16T12:14:59.413Z,38.60
2022-08-16T12:17:31.488Z,35.80
2022-08-16T12:20:00.694Z,37.20
2022-08-16T12:22:28.211Z,38.40
2022-08-16T12:24:55.106Z,39.20
2022-08-16T12:27:23.957Z,39.10
2022-08-16T12:29:52.850Z,37.60
2022-08-16T12:32:37.755Z,35.30
2022-08-16T12:35:12.091Z,33.60
2022-08-16T12:37:39.602Z,32.10
2022-08-16T12:40:24.005Z,32.00
2022-08-16T12:42:58.944Z,34.60
2022-08-16T12:45:28.621Z,34.30
2022-08-16T12:48:34.580Z,35.60
2022-08-16T12:51:03.000Z,38.40
2022-08-16T12:53:32.030Z,40.80
2022-08-16T12:56:00.028Z,37.80
2022-08-16T12:58:49.349Z,39.20
2022-08-16T13:01:14.800Z,41.40
2022-08-16T13:03:42.052Z,42.20
2022-08-16T13:06:09.648Z,43.50
2022-08-16T13:08:40.327Z,41.40
2022-08-16T13:11:08.009Z,40.60
2022-08-16T13:13:35.987Z,38.60
2022-08-16T13:16:15.368Z,39.70
2022-08-16T13:18:52.468Z,39.10
2022-08-16T13:21:23.309Z,38.90
2022-08-16T13:23:55.263Z,36.90
2022-08-16T13:26:23.366Z,37.40
2022-08-16T13:28:50.322Z,39.60
2022-08-16T13:31:17.300Z,40.80
2022-08-16T13:33:44.551Z,41.80
2022-08-16T13:36:21.398Z,42.70
2022-08-16T13:39:01.018Z,43.30
2022-08-16T13:41:30.219Z,42.10
2022-08-16T13:44:00.089Z,42.20
2022-08-16T13:46:29.123Z,44.50
2022-08-16T13:48:57.476Z,43.70
2022-08-16T13:51:25.125Z,42.70
2022-08-16T13:54:02.673Z,44.20
2022-08-16T13:56:36.849Z,45.20
2022-08-16T13:59:06.516Z,44.20
2022-08-16T14:01:46.998Z,44.80
2022-08-16T14:04:26.613Z,45.00
2022-08-16T14:06:55.209Z,43.20
2022-08-16T14:09:24.167Z,43.20
2022-08-16T14:11:53.735Z,44.10
2022-08-16T14:14:28.706Z,43.70
2022-08-16T14:17:00.372Z,44.60
2022-08-16T14:19:29.495Z,44.40
2022-08-16T14:22:14.176Z,42.50
2022-08-16T14:24:46.839Z,42.10
2022-08-16T14:27:19.614Z,44.30
2022-08-16T14:29:50.055Z,43.40
2022-08-16T14:32:32.814Z,44.90
2022-08-16T14:35:11.546Z,47.20
2022-08-16T14:37:39.509Z,46.20
2022-08-16T14:40:14.015Z,43.00
2022-08-16T14:42:44.028Z,43.70
2022-08-16T14:45:13.598Z,43.70
2022-08-16T14:47:41.050Z,44.20
2022-08-16T14:50:13.669Z,44.10
2022-08-16T14:52:56.129Z,45.10
2022-08-16T14:55:26.013Z,45.60
2022-08-16T14:57:54.563Z,44.90
2022-08-16T15:00:32.804Z,43.50
2022-08-16T15:03:02.812Z,44.70
2022-08-16T15:05:32.552Z,45.50
2022-08-16T15:07:59.485Z,46.00
2022-08-16T15:10:29.433Z,46.40
2022-08-16T15:13:00.876Z,42.20
2022-08-16T15:15:29.661Z,40.00
2022-08-16T15:17:57.660Z,42.10
2022-08-16T15:20:32.416Z,42.60
2022-08-16T15:23:02.933Z,41.70
2022-08-16T15:25:47.249Z,42.60
2022-08-16T15:28:31.735Z,44.40
2022-08-16T15:31:03.674Z,43.70
2022-08-16T15:33:34.738Z,43.70
2022-08-16T15:36:03.076Z,44.30
2022-08-16T15:38:55.116Z,44.70
2022-08-16T15:41:38.799Z,44.80
2022-08-16T15:44:13.639Z,45.00
2022-08-16T15:46:56.419Z,44.30
2022-08-16T15:49:34.928Z,45.10
2022-08-16T15:52:16.805Z,46.40
2022-08-16T15:54:52.711Z,46.90
2022-08-16T15:57:25.704Z,46.70
2022-08-16T15:59:55.568Z,46.70
2022-08-16T16:02:29.324Z,46.50
2022-08-16T16:05:09.788Z,45.70
2022-08-16T16:07:39.408Z,45.90
2022-08-16T16:10:12.949Z,45.10
2022-08-16T16:12:51.499Z,44.40
2022-08-16T16:15:25.216Z,45.60
2022-08-16T16:17:53.265Z,44.00
2022-08-16T16:20:24.503Z,45.00
2022-08-16T16:22:59.662Z,45.00
2022-08-16T16:25:28.189Z,43.80
2022-08-16T16:27:59.602Z,44.10
2022-08-16T16:30:38.122Z,43.70
2022-08-16T16:33:21.340Z,42.40
2022-08-16T16:35:55.274Z,42.20
2022-08-16T16:38:28.805Z,40.80
2022-08-16T16:40:57.034Z,41.30
2022-08-16T16:43:25.913Z,42.40
2022-08-16T16:46:00.651Z,41.80
2022-08-16T16:48:34.487Z,43.00
2022-08-16T16:51:10.133Z,42.70
2022-08-16T16:53:42.001Z,42.50
2022-08-16T16:56:19.729Z,43.10
2022-08-16T16:58:56.620Z,43.20
2022-08-16T17:01:35.145Z,43.30
2022-08-16T17:04:27.317Z,42.50
2022-08-16T17:06:58.653Z,41.90
2022-08-16T17:09:26.201Z,41.80
2022-08-16T17:11:55.607Z,40.20
2022-08-16T17:14:32.945Z,39.60
2022-08-16T17:17:04.826Z,39.40
2022-08-16T17:19:32.106Z,38.80
2022-08-16T17:22:00.230Z,38.80
2022-08-16T17:24:33.101Z,38.20
2022-08-16T17:27:08.626Z,36.00
2022-08-16T17:29:46.103Z,34.60
2022-08-16T17:32:33.671Z,33.50
2022-08-16T17:35:10.877Z,32.80
2022-08-16T17:37:48.763Z,31.80
2022-08-16T17:40:25.775Z,31.20
2022-08-16T17:43:10.564Z,30.70
2022-08-16T17:45:39.297Z,30.10
2022-08-16T17:48:06.857Z,29.80
2022-08-16T17:50:33.903Z,29.50
2022-08-16T17:53:03.111Z,29.10
2022-08-16T17:55:33.215Z,28.90
2022-08-16T17:58:00.879Z,28.70
2022-08-16T18:00:38.296Z,28.50
2022-08-16T18:03:10.784Z,28.30
2022-08-16T18:05:38.105Z,28.10
2022-08-16T18:08:05.075Z,27.90
2022-08-16T18:10:37.038Z,27.70
2022-08-16T18:13:04.547Z,27.40
2022-08-16T18:15:34.928Z,27.20
2022-08-16T18:18:02.199Z,26.90
2022-08-16T18:20:48.121Z,26.80
2022-08-16T18:23:21.879Z,26.60
2022-08-16T18:25:59.742Z,26.50
2022-08-16T18:28:28.105Z,26.30
2022-08-16T18:31:00.726Z,26.00
2022-08-16T18:33:28.343Z,25.70
2022-08-16T18:35:57.911Z,25.40
2022-08-16T18:38:25.294Z,25.50
2022-08-16T18:40:52.816Z,25.40
2022-08-16T18:43:21.733Z,25.40
2022-08-16T18:46:08.610Z,25.20
2022-08-16T18:48:35.746Z,25.00
2022-08-16T18:51:09.124Z,24.90
2022-08-16T18:53:38.508Z,24.80
2022-08-16T18:56:05.504Z,24.50
2022-08-16T18:58:35.336Z,24.50
2022-08-16T19:01:02.228Z,24.40
2022-08-16T19:03:31.987Z,24.10
2022-08-16T19:06:05.768Z,23.90
2022-08-16T19:08:37.028Z,23.80
2022-08-16T19:11:09.411Z,23.70
2022-08-16T19:13:36.900Z,23.90
2022-08-16T19:16:04.450Z,23.80
2022-08-16T19:18:36.447Z,23.70
2022-08-16T19:21:05.486Z,23.60
2022-08-16T19:23:35.923Z,23.40
2022-08-16T19:26:11.022Z,23.30
2022-08-16T19:28:59.494Z,23.10
2022-08-16T19:31:33.562Z,22.90
2022-08-16T19:34:02.167Z,22.70
2022-08-16T19:36:37.979Z,22.60
2022-08-16T19:39:14.061Z,22.70
2022-08-16T19:41:44.636Z,22.80
2022-08-16T19:44:12.837Z,22.70
2022-08-16T19:46:44.740Z,22.70
2022-08-16T19:49:12.261Z,22.80
2022-08-16T19:51:43.453Z,22.60
2022-08-16T19:54:10.364Z,22.60
2022-08-16T19:56:37.284Z,22.40
2022-08-16T19:59:21.503Z,22.30
2022-08-16T20:01:51.844Z,22.10
2022-08-16T20:04:19.282Z,22.00
2022-08-16T20:06:47.127Z,22.00
2022-08-16T20:09:15.062Z,21.90
2022-08-16T20:11:44.021Z,21.80
2022-08-16T20:14:11.616Z,21.80
2022-08-16T20:16:46.777Z,21.80
2022-08-16T20:19:13.638Z,21.70
2022-08-16T20:21:40.584Z,21.70
2022-08-16T20:24:32.700Z,21.50
2022-08-16T20:26:54.726Z,21.50
2022-08-16T20:29:21.565Z,21.40
2022-08-16T20:31:48.436Z,21.40
2022-08-16T20:34:15.765Z,21.20
2022-08-16T20:36:43.788Z,21.10
2022-08-16T20:39:13.483Z,21.10
2022-08-16T20:41:43.703Z,21.30
2022-08-16T20:44:11.583Z,21.00
2022-08-16T20:46:39.023Z,20.90
2022-08-16T20:49:09.162Z,20.90
2022-08-16T20:51:46.663Z,20.90
2022-08-16T20:54:18.139Z,20.90
2022-08-16T20:56:45.019Z,20.90
2022-08-16T20:59:12.035Z,21.10
2022-08-16T21:01:47.027Z,21.00
2022-08-16T21:04:22.894Z,20.90
2022-08-16T21:06:54.178Z,20.80
2022-08-16T21:09:32.527Z,20.70
2022-08-16T21:12:03.485Z,20.70
2022-08-16T21:14:34.131Z,20.70
2022-08-16T21:17:03.624Z,20.90
2022-08-16T21:19:31.927Z,20.90
2022-08-16T21:22:09.505Z,20.90
2022-08-16T21:24:36.356Z,20.70
2022-08-16T21:27:03.172Z,20.80
2022-08-16T21:29:39.577Z,20.60
2022-08-16T21:32:14.619Z,20.40
2022-08-16T21:34:42.501Z,20.30
2022-08-16T21:37:09.575Z,20.50
2022-08-16T21:39:36.593Z,20.50
2022-08-16T21:42:12.367Z,20.40
2022-08-16T21:44:39.903Z,20.40
2022-08-16T21:47:07.061Z,20.20
2022-08-16T21:49:36.737Z,20.10
2022-08-16T21:52:04.891Z,20.10
2022-08-16T21:54:32.004Z,20.10
2022-08-16T21:56:58.811Z,20.10
2022-08-16T21:59:25.636Z,19.90
2022-08-16T22:01:52.834Z,19.80
2022-08-16T22:04:37.580Z,19.80
2022-08-16T22:07:06.083Z,19.80
2022-08-16T22:09:33.163Z,19.80
2022-08-16T22:11:59.972Z,19.80
2022-08-16T22:14:26.842Z,19.80
2022-08-16T22:16:53.687Z,19.90
2022-08-16T22:19:23.092Z,19.90
2022-08-16T22:21:49.887Z,19.70
2022-08-16T22:24:16.719Z,19.60
2022-08-16T22:26:43.906Z,19.60
2022-08-16T22:29:13.741Z,19.60
2022-08-16T22:31:41.878Z,19.60
2022-08-16T22:34:09.027Z,19.70
2022-08-16T22:36:36.326Z,19.60
2022-08-16T22:39:06.822Z,19.40
2022-08-16T22:41:36.384Z,19.50
2022-08-16T22:44:04.662Z,19.40
2022-08-16T22:46:32.527Z,19.20
2022-08-16T22:48:59.312Z,19.20
2022-08-16T22:51:27.806Z,19.10
2022-08-16T22:53:56.660Z,19.20
2022-08-16T22:56:24.916Z,19.10
2022-08-16T22:58:52.099Z,19.10
2022-08-16T23:01:21.873Z,19.10
2022-08-16T23:03:48.793Z,19.10
2022-08-16T23:06:16.837Z,19.20
2022-08-16T23:08:44.586Z,19.30
2022-08-16T23:11:21.133Z,19.20
2022-08-16T23:13:56.367Z,19.10
2022-08-16T23:16:33.384Z,18.90
2022-08-16T23:19:12.242Z,18.90
2022-08-16T23:21:43.744Z,19.00
2022-08-16T23:24:11.681Z,18.90
2022-08-16T23:26:45.781Z,18.70
2022-08-16T23:29:24.423Z,18.60
2022-08-16T23:31:59.003Z,18.80
2022-08-16T23:34:29.494Z,18.60
2022-08-16T23:36:57.044Z,18.50
2022-08-16T23:39:24.159Z,18.50
2022-08-16T23:41:52.328Z,18.50
2022-08-16T23:44:42.379Z,18.40
2022-08-16T23:47:06.508Z,18.50
2022-08-16T23:49:57.595Z,18.30
2022-08-16T23:52:42.105Z,18.20
2022-08-16T23:55:08.526Z,18.20
2022-08-16T23:57:35.507Z,18.20
